Terminal Aerodrome Forecast
Issued by NWS Cleveland, OH

Home | Current Version | Previous Version | Text Only | Print | Product List | Glossary Off
Versions: 1 2 3 4 5 6 7 8 9 10 11 12 13 14 15 16 17 18 19 20 21 22 23

000
FTUS41 KCLE 162000 AAA
TAFCAK
TAF AMD
KCAK 162021Z 1620/1718 24012KT 6SM -SHRA BR OVC014
     FM170200 24011G22KT 6SM BR OVC008
     FM170800 26012G25KT P6SM OVC012
     FM171600 26012G25KT P6SM BKN015 OVC030=

USA.gov is the U.S. government's official web portal to all federal, state and local government web resources and services.